Time;durP1;ratioP1;P1;durP2;ratioP2;P2;SDS_P1;SDS_P2;PMS_P1;PMS_P2;Temp;Humidity;BMP_temperature;BMP_pressure;BME280_temperature;BME280_humidity;BME280_pressure;Samples;Min_cycle;Max_cycle;Signal;HPM_P1;HPM_P2
2023/04/01 00:00:01;;;;;;;2.30;0.60;;;;;;;10.10;89.95;96767.06;4172070;28;20651;-81
2023/04/01 00:02:15;;;;;;;1.40;0.60;;;;;;;10.08;89.89;96777.63;4182113;28;20628;-81
2023/04/01 00:04:18;;;;;;;1.33;0.60;;;;;;;10.07;89.86;96778.59;4180758;28;20714;-82
2023/04/01 00:06:21;;;;;;;3.70;0.80;;;;;;;10.09;90.16;96776.69;4183589;28;20648;-81
2023/04/01 00:08:26;;;;;;;2.13;1.33;;;;;;;10.08;90.73;96774.22;4185356;28;20639;-81
2023/04/01 00:10:29;;;;;;;1.90;0.60;;;;;;;10.07;90.22;96778.59;4173682;28;20649;-81
2023/04/01 00:12:32;;;;;;;3.80;1.02;;;;;;;10.05;90.29;96775.28;4183892;28;20639;-81
2023/04/01 00:14:36;;;;;;;2.90;0.65;;;;;;;10.02;90.76;96777.34;4190758;28;20266;-81
2023/04/01 00:16:40;;;;;;;1.77;0.60;;;;;;;10.02;90.74;96772.94;4189343;28;20648;-81
2023/04/01 00:18:46;;;;;;;1.30;0.60;;;;;;;10.03;90.92;96772.00;4186352;28;20643;-81
2023/04/01 00:20:51;;;;;;;1.90;0.60;;;;;;;10.00;90.41;96779.28;4187675;28;20258;-81
2023/04/01 00:22:54;;;;;;;2.47;0.60;;;;;;;10.01;90.31;96771.31;4189010;28;20643;-81
2023/04/01 00:24:57;;;;;;;2.08;0.70;;;;;;;10.04;91.19;96771.06;4184559;28;20634;-81
2023/04/01 00:27:00;;;;;;;1.77;0.82;;;;;;;10.06;90.72;96784.75;4168357;28;20222;-81
2023/04/01 00:29:05;;;;;;;1.83;0.60;;;;;;;10.03;90.84;96768.59;4171262;28;20218;-81
2023/04/01 00:31:09;;;;;;;1.80;0.80;;;;;;;10.03;91.08;96769.41;4184766;28;20662;-81
2023/04/01 00:33:12;;;;;;;1.23;0.60;;;;;;;10.02;90.99;96775.56;4171014;28;20645;-81
2023/04/01 00:35:17;;;;;;;1.47;0.50;;;;;;;10.03;90.83;96776.41;4194450;28;21046;-81
2023/04/01 00:37:20;;;;;;;2.38;0.50;;;;;;;10.05;91.35;96777.88;4193824;28;20682;-81
2023/04/01 00:39:23;;;;;;;1.77;0.57;;;;;;;10.05;91.57;96783.09;4187198;28;20246;-81
2023/04/01 00:41:27;;;;;;;1.00;0.60;;;;;;;10.04;91.44;96772.81;4188410;28;21246;-81
2023/04/01 00:43:31;;;;;;;2.13;0.80;;;;;;;10.08;91.72;96779.41;4167349;28;20240;-81
2023/04/01 00:45:36;;;;;;;1.80;0.90;;;;;;;10.10;91.21;96775.72;4173349;28;20587;-81
2023/04/01 00:47:39;;;;;;;2.47;0.70;;;;;;;10.05;91.69;96775.28;4182649;28;20266;-81
2023/04/01 00:49:45;;;;;;;2.80;0.80;;;;;;;10.04;91.83;96783.22;4186582;28;20224;-81
2023/04/01 00:51:51;;;;;;;5.32;1.15;;;;;;;9.96;92.26;96780.47;4181794;28;20640;-81
2023/04/01 00:53:56;;;;;;;1.60;0.70;;;;;;;9.91;92.41;96773.03;4183709;28;20221;-81
2023/04/01 00:56:02;;;;;;;3.15;0.82;;;;;;;9.86;92.98;96777.81;4170872;28;20680;-81
2023/04/01 00:58:06;;;;;;;1.45;0.70;;;;;;;9.83;93.14;96774.63;4188169;28;20213;-81
2023/04/01 01:00:12;;;;;;;2.80;0.82;;;;;;;9.84;93.35;96775.47;4166771;28;20683;-81
2023/04/01 01:02:16;;;;;;;3.73;1.03;;;;;;;9.83;93.47;96779.84;4162207;28;20206;-81
2023/04/01 01:04:24;;;;;;;4.20;0.90;;;;;;;9.87;93.79;96783.84;4181425;28;21112;-81
2023/04/01 01:06:40;;;;;;;4.57;0.90;;;;;;;9.84;94.01;96774.50;4193611;28;20205;-81
2023/04/01 01:08:58;;;;;;;1.53;0.70;;;;;;;9.85;93.79;96780.56;4192745;28;20284;-81
2023/04/01 01:11:01;;;;;;;2.05;1.00;;;;;;;9.88;93.78;96790.72;4171170;28;20663;-81
2023/04/01 01:13:10;;;;;;;2.47;0.77;;;;;;;9.90;93.39;96773.97;4173436;28;20356;-81
2023/04/01 01:15:22;;;;;;;2.78;1.00;;;;;;;9.90;93.28;96762.75;4187922;28;20209;-81
2023/04/01 01:17:34;;;;;;;2.88;1.10;;;;;;;9.92;93.85;96772.09;4182857;28;20213;-81
2023/04/01 01:20:17;;;;;;;2.95;0.90;;;;;;;9.94;93.15;96770.19;4185399;28;20201;-81
2023/04/01 01:22:40;;;;;;;2.67;0.88;;;;;;;9.98;93.24;96774.19;4131750;28;20633;-81
2023/04/01 01:24:54;;;;;;;2.75;0.75;;;;;;;9.97;92.86;96764.72;4184315;28;20303;-81
2023/04/01 01:27:02;;;;;;;3.10;0.95;;;;;;;9.95;93.57;96761.44;4170289;28;20229;-81
2023/04/01 01:29:11;;;;;;;2.38;0.85;;;;;;;9.94;93.46;96758.97;4189730;28;20617;-81
2023/04/01 01:31:19;;;;;;;1.55;0.93;;;;;;;9.92;93.96;96772.09;4186176;28;20229;-81
2023/04/01 01:33:35;;;;;;;2.27;0.77;;;;;;;9.88;93.32;96768.09;4185900;28;20646;-81
2023/04/01 01:35:44;;;;;;;4.40;1.00;;;;;;;9.86;94.41;96774.38;4171097;28;20632;-81
2023/04/01 01:37:55;;;;;;;1.40;0.80;;;;;;;9.86;94.46;96770.00;4170035;28;20242;-81
2023/04/01 01:40:01;;;;;;;3.90;1.15;;;;;;;9.84;94.34;96769.31;4190837;28;20639;-81
2023/04/01 01:42:09;;;;;;;2.22;0.70;;;;;;;9.82;94.83;96761.75;4184846;28;20213;-81
2023/04/01 01:44:14;;;;;;;3.45;0.98;;;;;;;9.80;94.66;96771.50;4169906;28;20212;-81
2023/04/01 01:46:21;;;;;;;5.10;0.90;;;;;;;9.77;95.00;96766.53;4182631;28;20219;-81
2023/04/01 01:48:26;;;;;;;3.17;1.00;;;;;;;9.79;94.96;96762.00;4185973;28;20260;-81
2023/04/01 01:50:29;;;;;;;4.68;1.00;;;;;;;9.81;95.15;96757.53;4168036;28;20230;-81
2023/04/01 01:52:34;;;;;;;5.07;0.88;;;;;;;9.83;94.67;96761.63;4183509;28;20259;-81
2023/04/01 01:54:37;;;;;;;3.67;0.90;;;;;;;9.81;95.45;96760.94;4180856;28;20206;-81
2023/04/01 01:56:45;;;;;;;2.00;0.70;;;;;;;9.84;95.21;96757.25;4181246;28;20209;-81
2023/04/01 01:58:52;;;;;;;2.78;0.80;;;;;;;9.80;94.71;96756.69;4198355;28;20837;-81
2023/04/01 02:00:58;;;;;;;2.35;0.70;;;;;;;9.78;94.35;96753.41;4162688;28;20219;-81
2023/04/01 02:03:01;;;;;;;3.13;0.90;;;;;;;9.78;94.23;96758.59;4180784;28;20295;-81
2023/04/01 02:05:06;;;;;;;3.38;0.82;;;;;;;9.76;94.78;96757.06;4177997;28;20233;-81
2023/04/01 02:07:12;;;;;;;4.63;0.90;;;;;;;9.76;95.15;96767.50;4185589;28;20210;-81
2023/04/01 02:09:17;;;;;;;2.87;0.90;;;;;;;9.78;95.57;96770.81;4171449;28;20206;-81
2023/04/01 02:11:27;;;;;;;2.30;1.00;;;;;;;9.71;96.02;96767.06;4168415;28;20648;-81
2023/04/01 02:13:35;;;;;;;3.08;0.63;;;;;;;9.68;95.88;96769.94;4179790;28;20301;-81
2023/04/01 02:15:42;;;;;;;2.45;0.75;;;;;;;9.65;96.58;96770.19;4186996;28;20288;-81
2023/04/01 02:17:47;;;;;;;3.67;0.80;;;;;;;9.65;98.05;96772.81;4186863;28;20205;-81
2023/04/01 02:19:53;;;;;;;2.63;0.80;;;;;;;9.60;98.29;96770.59;4164140;28;20281;-81
2023/04/01 02:22:00;;;;;;;2.03;0.90;;;;;;;9.55;99.29;96774.56;4186259;28;20284;-81
2023/04/01 02:24:05;;;;;;;1.77;0.73;;;;;;;9.47;100.00;96764.81;4187751;28;20300;-81
2023/04/01 02:26:11;;;;;;;4.07;1.00;;;;;;;9.46;99.61;96768.34;4176175;28;20739;-81
2023/04/01 02:28:16;;;;;;;2.50;0.70;;;;;;;9.44;100.00;96770.25;4180946;28;20217;-81
2023/04/01 02:30:20;;;;;;;2.55;1.05;;;;;;;9.44;100.00;96769.41;4160869;28;20293;-81
2023/04/01 02:32:23;;;;;;;2.78;0.80;;;;;;;9.39;100.00;96782.00;4183369;28;20621;-81
2023/04/01 02:34:27;;;;;;;1.53;0.70;;;;;;;9.43;100.00;96780.81;4186989;28;20786;-81
2023/04/01 02:36:30;;;;;;;3.93;1.33;;;;;;;9.39;100.00;96775.00;4185384;28;21072;-81
2023/04/01 02:38:36;;;;;;;2.72;0.70;;;;;;;9.39;100.00;96775.00;4185961;28;20722;-81
2023/04/01 02:40:45;;;;;;;2.05;0.93;;;;;;;9.39;100.00;96784.59;4196566;28;20213;-81
2023/04/01 02:42:49;;;;;;;1.27;0.52;;;;;;;9.38;100.00;96771.72;4167665;28;20206;-81
2023/04/01 02:44:52;;;;;;;2.70;0.80;;;;;;;9.38;100.00;96772.53;4202513;28;20223;-81
2023/04/01 02:46:56;;;;;;;3.22;0.85;;;;;;;9.40;100.00;96778.47;4163259;28;20658;-81
2023/04/01 02:48:59;;;;;;;3.33;1.48;;;;;;;9.40;99.88;96774.06;4176081;28;20210;-82
2023/04/01 02:51:02;;;;;;;2.25;0.55;;;;;;;9.46;100.00;96772.75;4171511;28;20233;-81
2023/04/01 02:53:06;;;;;;;1.08;0.47;;;;;;;9.43;99.36;96781.63;4175349;28;20281;-81
2023/04/01 02:55:10;;;;;;;2.03;0.50;;;;;;;9.41;98.88;96775.72;4173194;28;20675;-81
2023/04/01 02:57:13;;;;;;;1.98;0.85;;;;;;;9.44;98.56;96777.22;4175157;28;20739;-81
2023/04/01 02:59:17;;;;;;;1.95;0.70;;;;;;;9.44;98.08;96779.81;4187634;28;20221;-81
2023/04/01 03:01:21;;;;;;;2.10;0.70;;;;;;;9.42;98.48;96776.53;4175579;28;20248;-81
2023/04/01 03:03:27;;;;;;;2.50;0.73;;;;;;;9.44;98.00;96782.44;4196582;28;20662;-81
2023/04/01 03:05:30;;;;;;;1.70;0.77;;;;;;;9.45;98.15;96781.50;4184310;28;20232;-81
2023/04/01 03:07:34;;;;;;;0.90;0.50;;;;;;;9.46;98.21;96793.56;4185013;28;20243;-81
2023/04/01 03:09:38;;;;;;;3.35;1.15;;;;;;;9.40;98.55;96786.25;4184687;28;20244;-81
2023/04/01 03:11:42;;;;;;;1.00;0.63;;;;;;;9.41;98.80;96785.28;4181684;28;20560;-81
2023/04/01 03:13:45;;;;;;;1.70;0.43;;;;;;;9.40;99.64;96786.25;4187666;28;20205;-81
2023/04/01 03:15:49;;;;;;;1.83;0.80;;;;;;;9.38;99.24;96790.75;4182823;28;20297;-81
2023/04/01 03:17:53;;;;;;;2.08;0.55;;;;;;;9.38;99.40;96788.16;4182956;28;20713;-81
2023/04/01 03:19:56;;;;;;;2.25;0.65;;;;;;;9.36;99.72;96791.84;4181095;28;20221;-81
2023/04/01 03:21:59;;;;;;;1.00;0.40;;;;;;;9.35;98.46;96783.25;4176173;28;20221;-81
2023/04/01 03:24:02;;;;;;;2.13;0.60;;;;;;;9.35;98.30;96778.03;4186133;28;20429;-81
2023/04/01 03:26:05;;;;;;;1.35;0.52;;;;;;;9.32;97.88;96788.69;4171081;28;20698;-82
2023/04/01 03:28:09;;;;;;;1.15;0.63;;;;;;;9.35;96.62;96785.84;4187775;28;20568;-81
2023/04/01 03:30:12;;;;;;;2.60;0.70;;;;;;;9.41;97.28;96795.69;4186120;28;20213;-81
2023/04/01 03:32:27;;;;;;;0.97;0.50;;;;;;;9.40;96.80;96794.06;4188159;28;20224;-81
2023/04/01 03:34:30;;;;;;;1.95;0.65;;;;;;;9.38;96.94;96790.75;4187609;28;20944;-80
2023/04/01 03:36:33;;;;;;;2.45;0.60;;;;;;;9.42;96.22;96787.75;4188776;28;20228;-81
2023/04/01 03:38:36;;;;;;;2.42;0.65;;;;;;;9.40;96.08;96788.88;4167424;28;20208;-81
2023/04/01 03:40:43;;;;;;;1.25;0.65;;;;;;;9.47;96.43;96795.19;4174395;28;20670;-81
2023/04/01 03:42:46;;;;;;;2.20;0.40;;;;;;;9.46;95.70;96790.94;4189627;28;20209;-81
2023/04/01 03:44:50;;;;;;;1.23;0.50;;;;;;;9.46;96.07;96793.56;4190251;28;21051;-81
2023/04/01 03:46:53;;;;;;;1.30;0.45;;;;;;;9.43;96.33;96793.81;4184115;28;20684;-81
2023/04/01 03:48:58;;;;;;;1.30;0.40;;;;;;;9.41;95.54;96796.53;4175423;28;20210;-81
2023/04/01 03:51:01;;;;;;;1.05;0.57;;;;;;;9.40;95.71;96783.66;4173119;28;20210;-81
2023/04/01 03:53:06;;;;;;;1.65;0.60;;;;;;;9.43;95.41;96778.19;4183464;28;20221;-81
2023/04/01 03:55:09;;;;;;;0.80;0.40;;;;;;;9.42;95.72;96782.56;4166830;28;20214;-81
2023/04/01 03:57:14;;;;;;;1.10;0.50;;;;;;;9.40;94.00;96784.47;4174854;28;20225;-81
2023/04/01 03:59:17;;;;;;;1.27;0.47;;;;;;;9.38;94.69;96777.75;4172880;28;20206;-81
2023/04/01 04:01:22;;;;;;;2.00;0.40;;;;;;;9.34;94.94;96778.97;4180436;28;21200;-81
2023/04/01 04:03:28;;;;;;;1.60;0.40;;;;;;;9.26;94.28;96776.22;4185095;28;20780;-81
2023/04/01 04:05:34;;;;;;;3.45;0.40;;;;;;;9.26;94.66;96772.75;4171265;28;20238;-81
2023/04/01 04:07:39;;;;;;;2.15;0.47;;;;;;;9.24;94.27;96770.28;4188223;28;20607;-81
2023/04/01 04:09:44;;;;;;;1.20;0.50;;;;;;;9.22;94.29;96769.59;4186176;28;20269;-81
2023/04/01 04:11:47;;;;;;;1.53;0.40;;;;;;;9.23;94.67;96765.22;4203440;28;20661;-81
2023/04/01 04:13:51;;;;;;;1.67;0.50;;;;;;;9.20;94.79;96768.06;4188452;28;20737;-81
2023/04/01 04:15:54;;;;;;;2.30;0.50;;;;;;;9.21;93.71;96769.72;4165972;28;20693;-81
2023/04/01 04:17:58;;;;;;;1.05;0.47;;;;;;;9.22;93.96;96774.00;4188668;28;20725;-81
2023/04/01 04:20:01;;;;;;;1.83;0.65;;;;;;;9.24;93.26;96764.28;4185767;28;20304;-81
2023/04/01 04:22:06;;;;;;;1.85;0.40;;;;;;;9.27;93.25;96769.22;4174946;28;20203;-81
2023/04/01 04:24:10;;;;;;;1.48;0.40;;;;;;;9.28;93.76;96770.88;4186555;28;20209;-81
2023/04/01 04:26:45;;;;;;;1.77;0.70;;;;;;;9.30;93.06;96768.97;4188960;28;20463;-81
2023/04/01 04:28:50;;;;;;;1.35;0.50;;;;;;;9.27;93.71;96771.81;4180651;28;20209;-81
2023/04/01 04:30:54;;;;;;;1.67;0.90;;;;;;;9.29;92.75;96762.94;4184499;28;20213;-81
2023/04/01 04:32:57;;;;;;;1.48;0.50;;;;;;;9.30;92.65;96774.16;4169657;28;20649;-81
2023/04/01 04:35:01;;;;;;;2.33;0.60;;;;;;;9.29;92.93;96770.75;4185792;28;20202;-81
2023/04/01 04:37:04;;;;;;;1.88;0.50;;;;;;;9.31;91.88;96768.81;4185833;28;20817;-81
2023/04/01 04:39:12;;;;;;;0.98;0.40;;;;;;;9.35;92.19;96767.63;4188483;28;20296;-81
2023/04/01 04:41:18;;;;;;;1.10;0.50;;;;;;;9.35;92.09;96766.78;4183803;28;20332;-81
2023/04/01 04:43:25;;;;;;;0.90;0.50;;;;;;;9.34;90.73;96762.56;4173768;28;20223;-81
2023/04/01 04:45:28;;;;;;;1.20;0.47;;;;;;;9.38;91.77;96778.59;4187174;28;20236;-81
2023/04/01 04:47:32;;;;;;;1.85;0.60;;;;;;;9.36;91.49;96771.84;4182663;28;20279;-81
2023/04/01 04:49:35;;;;;;;1.52;0.60;;;;;;;9.40;91.84;96773.25;4184985;28;20208;-81
2023/04/01 04:51:43;;;;;;;2.45;0.55;;;;;;;9.44;91.52;96779.81;4165393;28;20207;-81
2023/04/01 04:53:47;;;;;;;2.60;1.10;;;;;;;9.41;91.37;96775.72;4172140;28;20729;-81
2023/04/01 04:55:54;;;;;;;1.60;0.70;;;;;;;9.44;91.22;96764.22;4179652;28;21539;-81
2023/04/01 04:58:20;;;;;;;1.65;0.60;;;;;;;9.45;91.03;96766.69;4181208;28;21057;-81
2023/04/01 05:00:24;;;;;;;4.80;0.80;;;;;;;9.48;90.96;96763.00;4179144;28;20213;-81
2023/04/01 05:02:32;;;;;;;1.60;0.50;;;;;;;9.44;90.85;96759.84;4201446;28;20667;-81
2023/04/01 05:04:36;;;;;;;2.00;0.70;;;;;;;9.44;91.18;96764.22;4173186;28;20563;-81
2023/04/01 05:06:44;;;;;;;2.58;0.60;;;;;;;9.41;90.68;96764.47;4167246;28;20707;-81
2023/04/01 05:08:48;;;;;;;1.50;0.70;;;;;;;9.40;90.74;96758.47;4187320;28;20201;-81
2023/04/01 05:10:51;;;;;;;1.10;0.52;;;;;;;9.36;91.57;96765.84;4170341;28;20624;-81
2023/04/01 05:12:55;;;;;;;1.85;0.57;;;;;;;9.31;90.89;96761.03;4182970;28;20226;-81
2023/04/01 05:14:59;;;;;;;1.60;0.50;;;;;;;9.27;91.61;96759.63;4169653;28;20224;-81
2023/04/01 05:17:02;;;;;;;1.83;0.60;;;;;;;9.21;91.55;96767.94;4181483;28;20285;-81
2023/04/01 05:19:06;;;;;;;1.67;0.60;;;;;;;9.22;91.84;96760.97;4186495;28;20228;-81
2023/04/01 05:21:09;;;;;;;2.97;0.57;;;;;;;9.17;92.39;96756.16;4168009;28;20217;-81
2023/04/01 05:23:13;;;;;;;2.65;0.52;;;;;;;9.15;92.29;96757.25;4181307;28;20213;-81
2023/04/01 05:25:17;;;;;;;1.17;0.50;;;;;;;9.06;91.67;96751.03;4173021;28;20299;-81
2023/04/01 05:27:20;;;;;;;2.35;0.60;;;;;;;9.11;92.19;96766.25;4180838;28;20209;-81
2023/04/01 05:29:24;;;;;;;1.20;0.68;;;;;;;9.12;92.92;96758.31;4185908;28;20202;-81
2023/04/01 05:31:34;;;;;;;2.30;0.60;;;;;;;9.12;92.66;96763.50;4187618;28;20745;-80
2023/04/01 05:33:38;;;;;;;1.35;0.70;;;;;;;9.14;92.49;96766.81;4163453;28;20242;-81
2023/04/01 05:35:42;;;;;;;2.75;0.60;;;;;;;9.15;92.26;96765.84;4171796;28;20206;-81
2023/04/01 05:37:45;;;;;;;1.70;0.65;;;;;;;9.18;93.05;96762.19;4195708;28;20692;-81
2023/04/01 05:39:48;;;;;;;4.43;1.05;;;;;;;9.09;92.64;96758.56;4185010;28;20758;-81
2023/04/01 05:41:51;;;;;;;3.55;1.30;;;;;;;9.11;92.76;96761.88;4170572;28;20566;-81
2023/04/01 05:43:55;;;;;;;4.07;1.20;;;;;;;9.16;93.19;96764.91;4185681;28;20197;-81
2023/04/01 05:46:25;;;;;;;3.15;1.20;;;;;;;9.19;93.28;96769.03;4184158;28;20292;-81
2023/04/01 05:48:39;;;;;;;4.63;1.40;;;;;;;9.17;93.64;96766.56;4171713;28;20214;-81
2023/04/01 05:50:43;;;;;;;4.72;2.10;;;;;;;9.22;93.72;96764.41;4185132;28;20623;-81
2023/04/01 05:52:47;;;;;;;4.63;1.80;;;;;;;9.28;93.16;96765.66;4186501;28;20657;-81
2023/04/01 05:54:50;;;;;;;2.70;1.40;;;;;;;9.34;93.18;96768.56;4188387;28;20632;-81
2023/04/01 05:56:53;;;;;;;3.70;1.40;;;;;;;9.36;92.56;96764.06;4186658;28;20220;-81
2023/04/01 05:58:56;;;;;;;2.47;1.00;;;;;;;9.41;92.75;96751.47;4168415;28;20838;-81
2023/04/01 06:01:03;;;;;;;2.78;1.23;;;;;;;9.43;93.05;96760.81;4169477;28;20642;-81
2023/04/01 06:03:17;;;;;;;2.05;0.70;;;;;;;9.47;92.68;96757.00;4184370;28;20765;-82
2023/04/01 06:05:22;;;;;;;1.90;0.90;;;;;;;9.50;92.61;96753.28;4185143;28;20826;-82
2023/04/01 06:07:25;;;;;;;2.50;0.90;;;;;;;9.53;92.07;96753.88;4189491;28;20309;-81
2023/04/01 06:09:30;;;;;;;3.67;0.93;;;;;;;9.54;91.56;96765.09;4191715;28;20209;-81
2023/04/01 06:11:38;;;;;;;2.47;0.68;;;;;;;9.60;91.86;96760.19;4174969;28;20244;-81
2023/04/01 06:13:53;;;;;;;3.28;1.02;;;;;;;9.64;90.82;96765.97;4184915;28;20697;-81
2023/04/01 06:16:02;;;;;;;1.20;0.50;;;;;;;9.74;91.63;96770.25;4192428;28;20218;-84
2023/04/01 06:18:27;;;;;;;5.90;3.57;;;;;;;9.79;91.37;96769.81;4179575;28;20691;-82
2023/04/01 06:20:39;;;;;;;5.57;2.28;;;;;;;9.84;91.05;96763.28;4146452;28;20677;-82
2023/04/01 06:22:52;;;;;;;1.80;1.20;;;;;;;9.80;90.55;96763.69;4171401;28;20248;-82
2023/04/01 06:25:38;;;;;;;2.97;0.80;;;;;;;9.83;91.24;96760.81;4167326;28;20202;-82
2023/04/01 06:27:52;;;;;;;2.20;0.70;;;;;;;9.88;90.26;96765.50;4170658;28;20678;-82
2023/04/01 06:30:05;;;;;;;2.10;0.67;;;;;;;9.90;89.86;96766.16;4177127;28;20206;-81
2023/04/01 06:32:42;;;;;;;1.67;0.80;;;;;;;9.97;89.86;96762.13;4169852;28;20738;-81
2023/04/01 06:35:26;;;;;;;1.57;0.53;;;;;;;9.98;88.90;96761.16;4195332;28;20754;-81
2023/04/01 06:38:02;;;;;;;1.80;0.50;;;;;;;10.07;88.60;96754.31;4163746;28;20664;-81
2023/04/01 06:40:14;;;;;;;2.00;0.60;;;;;;;10.10;89.16;96754.88;4167682;28;20204;-79
2023/04/01 06:42:33;;;;;;;1.83;0.60;;;;;;;10.13;87.42;96756.38;4168523;28;20223;-80
2023/04/01 06:44:50;;;;;;;2.40;0.70;;;;;;;10.22;87.62;96756.38;4178457;28;20647;-81
2023/04/01 06:47:37;;;;;;;2.43;1.57;;;;;;;10.24;88.17;96762.31;4188432;28;20719;-79
2023/04/01 06:50:15;;;;;;;2.35;1.27;;;;;;;10.22;87.55;96759.00;4185165;28;20730;-80
2023/04/01 06:52:51;;;;;;;4.03;2.40;;;;;;;10.28;87.59;96753.25;4208411;28;20238;-80
2023/04/01 06:55:25;;;;;;;1.00;0.50;;;;;;;10.28;87.57;96748.03;4151995;28;20628;-80
2023/04/01 06:57:50;;;;;;;2.67;0.73;;;;;;;10.26;86.91;96744.75;4181883;28;20650;-80
2023/04/01 06:59:56;;;;;;;1.90;0.80;;;;;;;10.32;87.14;96752.03;4188179;28;21187;-80
2023/04/01 07:02:03;;;;;;;2.63;0.67;;;;;;;10.28;87.41;96758.47;4180850;28;20628;-81
2023/04/01 07:04:11;;;;;;;5.63;1.40;;;;;;;10.23;87.34;96755.44;4168327;28;20747;-81
2023/04/01 07:06:20;;;;;;;3.20;1.10;;;;;;;10.22;88.45;96755.56;4182820;28;20743;-80
2023/04/01 07:08:30;;;;;;;4.27;0.80;;;;;;;10.21;87.86;96761.72;4166689;28;20241;-81
2023/04/01 07:10:43;;;;;;;4.30;1.03;;;;;;;10.19;88.19;96761.88;4174173;28;20632;-80
2023/04/01 07:13:09;;;;;;;2.15;0.73;;;;;;;10.19;88.58;96759.25;4181709;28;20636;-81
2023/04/01 07:15:34;;;;;;;1.30;0.60;;;;;;;10.15;88.35;96754.47;4183248;28;20205;-81
2023/04/01 07:17:40;;;;;;;0.88;0.50;;;;;;;10.13;87.90;96757.22;4191753;28;20631;-80
2023/04/01 07:19:46;;;;;;;3.93;1.00;;;;;;;10.17;88.61;96762.97;4189073;28;20735;-80
2023/04/01 07:21:53;;;;;;;1.85;0.88;;;;;;;10.15;88.15;96759.66;4187809;28;20737;-80
2023/04/01 07:24:13;;;;;;;3.57;0.83;;;;;;;10.13;88.36;96764.19;4167510;28;20210;-81
2023/04/01 07:26:21;;;;;;;1.60;0.73;;;;;;;10.14;88.55;96765.84;4182808;28;21015;-81
2023/04/01 07:28:42;;;;;;;3.10;1.07;;;;;;;10.14;88.30;96755.44;4184370;28;20640;-82
2023/04/01 07:31:10;;;;;;;1.20;0.50;;;;;;;10.10;88.76;96754.03;4174141;28;20624;-81
2023/04/01 07:33:16;;;;;;;2.33;0.80;;;;;;;10.10;88.64;96764.47;4173989;28;20628;-81
2023/04/01 07:35:25;;;;;;;1.93;0.67;;;;;;;10.07;88.02;96762.97;4165816;28;20651;-81
2023/04/01 07:37:33;;;;;;;2.93;1.13;;;;;;;10.14;88.27;96765.84;4183549;28;21307;-82
2023/04/01 07:39:45;;;;;;;2.88;1.40;;;;;;;10.10;88.83;96769.69;4189770;28;21061;-82
2023/04/01 07:41:59;;;;;;;2.90;1.00;;;;;;;10.07;88.02;96768.19;4186072;28;20213;-82
2023/04/01 07:44:10;;;;;;;3.50;0.90;;;;;;;10.06;88.87;96763.91;4171706;28;20621;-81
2023/04/01 07:46:22;;;;;;;2.80;0.80;;;;;;;10.07;89.01;96768.19;4186132;28;20617;-82
2023/04/01 07:48:32;;;;;;;1.58;0.50;;;;;;;10.11;88.58;96779.97;4190765;28;21237;-81
2023/04/01 07:50:42;;;;;;;1.83;0.60;;;;;;;10.09;88.10;96768.88;4178095;28;20228;-82
2023/04/01 07:52:53;;;;;;;2.60;0.97;;;;;;;10.12;89.17;96768.59;4180576;28;20635;-82
2023/04/01 07:55:07;;;;;;;1.10;0.50;;;;;;;10.13;89.40;96778.06;4179019;28;20694;-81
2023/04/01 07:57:15;;;;;;;2.27;1.00;;;;;;;10.12;89.78;96778.19;4183077;28;21273;-84
2023/04/01 07:59:30;;;;;;;1.83;0.80;;;;;;;10.12;90.44;96783.41;4188477;28;20653;-82
2023/04/01 08:01:41;;;;;;;2.80;1.20;;;;;;;10.16;89.70;96769.94;4190175;28;20628;-81
2023/04/01 08:03:56;;;;;;;2.07;1.13;;;;;;;10.20;89.87;96781.75;4163690;28;20747;-81
2023/04/01 08:06:04;;;;;;;1.53;0.60;;;;;;;10.18;90.00;96775.88;4174758;28;20893;-79
2023/04/01 08:08:16;;;;;;;2.37;0.83;;;;;;;10.13;89.24;96772.84;4160518;28;20671;-79
2023/04/01 08:10:45;;;;;;;1.10;0.67;;;;;;;10.20;88.71;96773.13;4179568;28;20629;-80
2023/04/01 08:13:26;;;;;;;3.27;0.60;;;;;;;10.23;89.85;96778.06;4172144;28;21541;-79
2023/04/01 08:15:55;;;;;;;3.27;1.27;;;;;;;10.25;89.70;96779.56;4172105;28;20771;-80
2023/04/01 08:18:24;;;;;;;1.30;0.50;;;;;;;10.28;89.44;96779.31;4182729;28;21249;-82
2023/04/01 08:20:35;;;;;;;2.27;0.60;;;;;;;10.31;89.51;96779.03;4185252;28;20693;-81
2023/04/01 08:22:41;;;;;;;3.40;1.50;;;;;;;10.32;89.09;96772.06;4177868;28;20627;-84
2023/04/01 08:25:03;;;;;;;4.10;1.87;;;;;;;10.32;89.47;96775.47;4197372;28;20697;-82
2023/04/01 08:27:13;;;;;;;5.50;2.97;;;;;;;10.36;90.13;96782.88;4188174;28;21221;-83
2023/04/01 08:29:20;;;;;;;8.13;4.80;;;;;;;10.38;89.57;96790.56;4172885;28;20617;-82
2023/04/01 08:31:26;;;;;;;6.17;3.77;;;;;;;10.41;89.11;96785.09;4171540;28;21074;-82
2023/04/01 08:33:31;;;;;;;6.50;4.03;;;;;;;10.38;89.67;96786.19;4174379;28;20636;-82
2023/04/01 08:35:42;;;;;;;2.30;1.37;;;;;;;10.42;88.92;96786.75;4204952;28;20654;-82
2023/04/01 08:37:46;;;;;;;1.77;0.80;;;;;;;10.42;89.72;96791.97;4165815;28;21041;-82
2023/04/01 08:39:57;;;;;;;2.20;0.80;;;;;;;10.42;89.02;96777.13;4188736;28;20632;-83
2023/04/01 08:42:42;;;;;;;1.73;0.70;;;;;;;10.38;88.70;96795.78;4184315;28;20638;-82
2023/04/01 08:45:11;;;;;;;2.90;0.80;;;;;;;10.39;90.57;96792.22;4151864;28;20622;-82
2023/04/01 08:47:41;;;;;;;1.87;0.70;;;;;;;10.33;91.10;96790.16;4183530;28;20643;-82
2023/04/01 08:49:56;;;;;;;1.00;0.50;;;;;;;10.35;91.75;96790.84;4172392;28;20640;-82
2023/04/01 08:52:32;;;;;;;2.97;0.60;;;;;;;10.37;92.38;96799.34;4183766;28;20678;-82
2023/04/01 08:54:47;;;;;;;1.67;0.67;;;;;;;10.41;92.56;96787.69;4169825;28;20626;-82
2023/04/01 08:57:01;;;;;;;1.10;0.40;;;;;;;10.33;93.51;96798.78;4186417;28;20732;-82
2023/04/01 08:59:18;;;;;;;2.17;0.60;;;;;;;10.32;93.93;96797.13;4177618;28;20644;-82
2023/04/01 09:01:33;;;;;;;1.73;0.60;;;;;;;10.33;94.16;96806.63;4187776;28;21056;-82
2023/04/01 09:03:42;;;;;;;2.23;0.60;;;;;;;10.24;94.18;96805.75;4177716;28;20666;-83
2023/04/01 09:06:06;;;;;;;1.70;0.60;;;;;;;10.32;93.86;96800.72;4187471;28;20714;-82
2023/04/01 09:08:22;;;;;;;1.00;0.50;;;;;;;10.37;94.45;96799.34;4183984;28;20667;-83
2023/04/01 09:10:41;;;;;;;1.83;0.70;;;;;;;10.28;95.51;96799.34;4189605;28;20643;-83
2023/04/01 09:13:25;;;;;;;1.40;0.40;;;;;;;10.30;95.03;96807.81;4185348;28;20624;-82
2023/04/01 09:15:48;;;;;;;5.00;0.70;;;;;;;10.26;95.90;96812.50;4183913;28;20663;-82
2023/04/01 09:18:39;;;;;;;2.83;0.90;;;;;;;10.24;96.63;96809.22;4187264;28;20665;-81
2023/04/01 09:20:58;;;;;;;1.90;1.20;;;;;;;10.22;97.98;96807.69;4159697;28;21008;-81
2023/04/01 09:23:16;;;;;;;1.37;0.60;;;;;;;10.22;97.85;96808.50;4174925;28;20638;-81
2023/04/01 09:25:57;;;;;;;1.40;0.80;;;;;;;10.23;99.23;96809.34;4191946;28;20657;-81
2023/04/01 09:28:10;;;;;;;3.70;0.87;;;;;;;10.14;98.82;96805.75;4121921;28;20697;-81
2023/04/01 09:30:34;;;;;;;3.57;0.70;;;;;;;10.07;98.79;96807.25;4166448;28;20682;-81
2023/04/01 09:33:02;;;;;;;1.80;0.93;;;;;;;10.07;99.99;96807.25;4184826;28;20694;-81
2023/04/01 09:35:21;;;;;;;2.27;1.00;;;;;;;10.06;100.00;96805.59;4182097;28;20942;-81
2023/04/01 09:37:35;;;;;;;2.25;0.70;;;;;;;10.07;100.00;96804.66;4192045;28;21061;-81
2023/04/01 09:39:51;;;;;;;2.53;0.73;;;;;;;10.04;100.00;96807.53;4178293;28;20264;-81
2023/04/01 09:42:08;;;;;;;1.98;0.80;;;;;;;10.01;99.14;96801.72;4173340;28;20884;-81
2023/04/01 09:44:22;;;;;;;1.10;0.60;;;;;;;10.07;99.76;96817.66;4192706;28;20198;-81
2023/04/01 09:46:55;;;;;;;1.13;0.60;;;;;;;10.04;99.37;96811.88;4184518;28;20679;-81
2023/04/01 09:49:30;;;;;;;2.67;0.93;;;;;;;10.11;100.00;96824.25;4194832;28;20730;-81
2023/04/01 09:51:38;;;;;;;1.90;0.70;;;;;;;10.12;99.49;96828.50;4172978;28;21111;-81
2023/04/01 09:53:59;;;;;;;1.30;0.70;;;;;;;10.19;99.49;96821.78;4185328;28;21231;-81
2023/04/01 09:56:35;;;;;;;1.85;0.80;;;;;;;10.26;99.37;96824.72;4187878;28;20659;-81
2023/04/01 09:59:03;;;;;;;2.83;0.70;;;;;;;10.22;98.61;96826.72;4189862;28;20232;-81
2023/04/01 10:01:43;;;;;;;1.57;1.00;;;;;;;10.29;99.08;96825.25;4187871;28;20624;-81
2023/04/01 10:04:21;;;;;;;1.48;0.65;;;;;;;10.26;97.85;96830.72;4171664;28;20620;-81
2023/04/01 10:06:52;;;;;;;1.60;0.70;;;;;;;10.22;97.82;96826.72;4188058;28;21524;-81
2023/04/01 10:09:33;;;;;;;0.90;0.50;;;;;;;10.25;97.98;96828.25;4186740;28;20300;-81
2023/04/01 10:12:29;;;;;;;1.10;0.60;;;;;;;10.32;98.12;96832.00;4188085;28;20661;-80
2023/04/01 10:15:05;;;;;;;1.30;0.60;;;;;;;10.29;97.56;96829.66;4177055;28;20635;-81
2023/04/01 10:17:49;;;;;;;1.30;0.50;;;;;;;10.36;97.88;96839.41;4154754;28;20675;-81
2023/04/01 10:20:29;;;;;;;1.03;0.40;;;;;;;10.29;97.77;96835.69;4182289;28;20620;-81